createdAt,value
2019-01-27T00:00:53.639Z,49.27
2019-01-27T00:03:22.499Z,51.27
2019-01-27T00:05:50.275Z,51.13
2019-01-27T00:08:17.961Z,50.97
2019-01-27T00:10:45.632Z,49.17
2019-01-27T00:13:13.378Z,50.23
2019-01-27T00:15:41.019Z,50.73
2019-01-27T00:18:08.729Z,48.33
2019-01-27T00:20:36.448Z,48.23
2019-01-27T00:23:04.217Z,50.60
2019-01-27T00:25:31.882Z,48.93
2019-01-27T00:27:59.578Z,52.27
2019-01-27T00:30:27.288Z,48.80
2019-01-27T00:32:54.985Z,50.03
2019-01-27T00:35:22.737Z,50.23
2019-01-27T00:37:50.538Z,50.20
2019-01-27T00:40:18.377Z,50.60
2019-01-27T00:42:46.070Z,49.40
2019-01-27T00:45:15.007Z,48.70
2019-01-27T00:47:43.823Z,50.20
2019-01-27T00:50:13.127Z,49.23
2019-01-27T00:52:40.689Z,51.07
2019-01-27T00:55:12.063Z,51.67
2019-01-27T00:57:39.729Z,50.00
2019-01-27T01:00:09.082Z,46.93
2019-01-27T01:02:36.685Z,49.30
2019-01-27T01:05:05.233Z,50.93
2019-01-27T01:07:33.238Z,48.33
2019-01-27T01:10:01.400Z,49.30
2019-01-27T01:12:29.171Z,50.03
2019-01-27T01:14:56.897Z,49.40
2019-01-27T01:17:24.592Z,51.10
2019-01-27T01:19:52.448Z,47.73
2019-01-27T01:22:20.149Z,49.43
2019-01-27T01:24:48.007Z,49.33
2019-01-27T01:27:15.854Z,46.83
2019-01-27T01:29:43.665Z,47.10
2019-01-27T01:32:11.369Z,49.97
2019-01-27T01:34:39.020Z,46.70
2019-01-27T01:37:06.705Z,48.40
2019-01-27T01:39:34.335Z,49.07
2019-01-27T01:42:02.048Z,47.63
2019-01-27T01:44:29.636Z,48.20
2019-01-27T01:46:57.294Z,48.03
2019-01-27T01:49:24.861Z,49.70
2019-01-27T01:51:52.482Z,49.07
2019-01-27T01:54:20.057Z,50.57
2019-01-27T01:56:47.770Z,47.37
2019-01-27T01:59:15.345Z,47.67
2019-01-27T02:01:43.004Z,47.50
2019-01-27T02:04:10.594Z,47.03
2019-01-27T02:06:38.346Z,46.47
2019-01-27T02:09:10.068Z,45.63
2019-01-27T02:11:38.562Z,48.10
2019-01-27T02:14:06.674Z,46.77
2019-01-27T02:16:34.361Z,47.20
2019-01-27T02:19:03.101Z,45.63
2019-01-27T02:21:30.725Z,47.03
2019-01-27T02:23:58.343Z,47.40
2019-01-27T02:26:26.011Z,44.50
2019-01-27T02:28:53.613Z,42.90
2019-01-27T02:31:21.341Z,44.23
2019-01-27T02:33:48.950Z,43.80
2019-01-27T02:36:16.603Z,43.97
2019-01-27T02:38:44.228Z,42.57
2019-01-27T02:41:11.985Z,41.23
2019-01-27T02:43:39.759Z,43.40
2019-01-27T02:46:08.494Z,42.93
2019-01-27T02:48:36.176Z,44.77
2019-01-27T02:51:04.623Z,42.77
2019-01-27T02:53:32.385Z,42.40
2019-01-27T02:56:00.060Z,40.77
2019-01-27T02:58:27.790Z,39.67
2019-01-27T03:00:55.447Z,39.90
2019-01-27T03:03:23.168Z,39.20
2019-01-27T03:06:13.203Z,38.13
2019-01-27T03:08:48.772Z,38.57
2019-01-27T03:11:16.620Z,36.40
2019-01-27T03:13:44.426Z,36.37
2019-01-27T03:16:12.913Z,36.60
2019-01-27T03:18:40.702Z,36.90
2019-01-27T03:21:08.332Z,35.17
2019-01-27T03:23:37.903Z,35.37
2019-01-27T03:26:05.810Z,35.40
2019-01-27T03:28:33.419Z,36.43
2019-01-27T03:31:02.835Z,36.40
2019-01-27T03:33:30.645Z,36.33
2019-01-27T03:35:58.285Z,36.33
2019-01-27T03:38:25.886Z,34.77
2019-01-27T03:40:53.539Z,35.27
2019-01-27T03:43:23.204Z,35.10
2019-01-27T03:45:51.039Z,35.97
2019-01-27T03:48:18.642Z,36.67
2019-01-27T03:50:46.310Z,35.83
2019-01-27T03:53:13.899Z,36.30
2019-01-27T03:55:41.566Z,37.23
2019-01-27T03:58:09.199Z,34.63
2019-01-27T04:00:36.957Z,38.10
2019-01-27T04:03:04.595Z,37.60
2019-01-27T04:05:33.425Z,37.37
2019-01-27T04:08:01.022Z,40.07
2019-01-27T04:10:28.742Z,40.30
2019-01-27T04:12:56.462Z,39.70
2019-01-27T04:15:24.063Z,39.03
2019-01-27T04:17:51.747Z,39.20
2019-01-27T04:20:19.794Z,39.23
2019-01-27T04:22:47.732Z,37.17
2019-01-27T04:25:16.448Z,41.63
2019-01-27T04:27:44.337Z,41.97
2019-01-27T04:30:31.462Z,41.53
2019-01-27T04:32:59.156Z,40.30
2019-01-27T04:35:26.860Z,37.53
2019-01-27T04:37:54.507Z,38.27
2019-01-27T04:40:22.253Z,38.17
2019-01-27T04:42:50.149Z,39.50
2019-01-27T04:45:23.043Z,40.70
2019-01-27T04:47:52.361Z,45.83
2019-01-27T04:50:20.186Z,42.97
2019-01-27T04:52:47.855Z,41.77
2019-01-27T04:55:15.708Z,41.57
2019-01-27T04:57:43.463Z,42.27
2019-01-27T05:00:14.134Z,42.40
2019-01-27T05:02:46.688Z,41.97
2019-01-27T05:05:14.522Z,42.77
2019-01-27T05:07:42.339Z,41.10
2019-01-27T05:10:10.267Z,42.37
2019-01-27T05:12:37.950Z,42.50
2019-01-27T05:15:08.483Z,44.87
2019-01-27T05:17:36.071Z,44.37
2019-01-27T05:20:05.513Z,43.67
2019-01-27T05:22:33.129Z,45.73
2019-01-27T05:25:00.818Z,40.97
2019-01-27T05:27:28.408Z,41.40
2019-01-27T05:29:56.458Z,43.30
2019-01-27T05:32:24.049Z,40.07
2019-01-27T05:34:51.767Z,41.20
2019-01-27T05:37:19.361Z,40.67
2019-01-27T05:39:47.137Z,42.07
2019-01-27T05:42:14.849Z,40.23
2019-01-27T05:44:42.497Z,42.70
2019-01-27T05:47:10.058Z,41.73
2019-01-27T05:49:37.698Z,41.20
2019-01-27T05:52:05.385Z,39.10
2019-01-27T05:54:32.969Z,40.80
2019-01-27T05:57:00.686Z,39.97
2019-01-27T05:59:28.284Z,42.93
2019-01-27T06:01:55.912Z,42.93
2019-01-27T06:04:23.531Z,41.47
2019-01-27T06:06:51.219Z,42.83
2019-01-27T06:09:20.465Z,41.30
2019-01-27T06:11:48.093Z,43.40
2019-01-27T06:14:15.700Z,43.20
2019-01-27T06:16:43.415Z,44.20
2019-01-27T06:19:11.210Z,43.30
2019-01-27T06:21:39.036Z,42.83
2019-01-27T06:24:06.634Z,44.10
2019-01-27T06:26:34.347Z,40.60
2019-01-27T06:29:01.993Z,41.47
2019-01-27T06:31:31.584Z,45.17
2019-01-27T06:34:05.958Z,44.07
2019-01-27T06:36:33.583Z,42.63
2019-01-27T06:39:01.809Z,42.33
2019-01-27T06:41:31.221Z,41.67
2019-01-27T06:43:58.915Z,41.47
2019-01-27T06:46:26.714Z,42.43
2019-01-27T06:48:54.412Z,43.97
2019-01-27T06:51:22.214Z,42.10
2019-01-27T06:53:49.985Z,42.87
2019-01-27T06:56:19.465Z,41.37
2019-01-27T06:59:05.411Z,41.73
2019-01-27T07:01:52.862Z,40.80
2019-01-27T07:04:39.990Z,42.00
2019-01-27T07:07:25.650Z,43.20
2019-01-27T07:10:27.677Z,46.37
2019-01-27T07:13:06.725Z,46.20
2019-01-27T07:16:08.985Z,41.80
2019-01-27T07:18:54.529Z,49.30
2019-01-27T07:21:59.683Z,50.70
2019-01-27T07:24:50.067Z,50.13
2019-01-27T07:27:36.732Z,47.67
2019-01-27T07:30:29.618Z,47.80
2019-01-27T07:33:09.133Z,49.73
2019-01-27T07:35:48.933Z,48.90
2019-01-27T07:38:36.133Z,50.77
2019-01-27T07:41:23.068Z,47.93
2019-01-27T07:44:11.369Z,49.37
2019-01-27T07:47:01.441Z,48.37
2019-01-27T07:50:00.793Z,47.43
2019-01-27T07:52:47.606Z,46.20
2019-01-27T07:55:44.187Z,48.07
2019-01-27T07:58:49.246Z,46.90
2019-01-27T08:01:27.501Z,47.30
2019-01-27T08:04:32.946Z,47.93
2019-01-27T08:07:25.991Z,48.03
2019-01-27T08:10:18.945Z,46.10
2019-01-27T08:12:57.115Z,46.03
2019-01-27T08:15:50.068Z,47.07
2019-01-27T08:18:37.383Z,45.90
2019-01-27T08:21:11.519Z,46.17
2019-01-27T08:23:56.540Z,50.53
2019-01-27T08:26:31.839Z,47.83
2019-01-27T08:29:12.692Z,49.67
2019-01-27T08:31:59.968Z,50.17
2019-01-27T08:34:35.580Z,47.03
2019-01-27T08:37:28.694Z,48.67
2019-01-27T08:40:07.402Z,47.00
2019-01-27T08:43:00.714Z,46.73
2019-01-27T08:46:06.045Z,46.40
2019-01-27T08:48:33.719Z,47.00
2019-01-27T08:51:01.442Z,47.57
2019-01-27T08:53:29.061Z,48.17
2019-01-27T08:55:56.736Z,47.00
2019-01-27T08:58:24.617Z,48.43
2019-01-27T09:01:07.581Z,49.47
2019-01-27T09:03:57.258Z,48.33
2019-01-27T09:06:35.467Z,48.10
2019-01-27T09:09:37.780Z,48.17
2019-01-27T09:12:21.323Z,45.70
2019-01-27T09:15:11.479Z,46.37
2019-01-27T09:18:07.674Z,48.80
2019-01-27T09:20:54.780Z,49.07
2019-01-27T09:23:56.837Z,48.07
2019-01-27T09:26:33.197Z,48.83
2019-01-27T09:29:13.652Z,50.37
2019-01-27T09:32:00.796Z,50.30
2019-01-27T09:35:07.411Z,48.50
2019-01-27T09:38:13.076Z,47.77
2019-01-27T09:40:59.366Z,48.57
2019-01-27T09:43:44.931Z,49.20
2019-01-27T09:46:35.267Z,52.47
2019-01-27T09:49:25.602Z,49.37
2019-01-27T09:52:03.170Z,48.17
2019-01-27T09:54:49.689Z,48.10
2019-01-27T09:57:40.336Z,48.00
2019-01-27T10:00:44.245Z,48.83
2019-01-27T10:03:35.874Z,48.97
2019-01-27T10:06:12.832Z,47.40
2019-01-27T10:08:59.272Z,47.60
2019-01-27T10:11:38.073Z,49.20
2019-01-27T10:14:29.219Z,45.60
2019-01-27T10:17:22.212Z,49.03
2019-01-27T10:20:08.466Z,46.93
2019-01-27T10:22:58.908Z,47.47
2019-01-27T10:25:46.223Z,47.30
2019-01-27T10:28:32.527Z,46.13
2019-01-27T10:31:18.708Z,46.53
2019-01-27T10:34:02.174Z,45.93
2019-01-27T10:36:40.358Z,45.47
2019-01-27T10:39:27.136Z,46.60
2019-01-27T10:42:19.278Z,44.20
2019-01-27T10:45:16.385Z,46.17
2019-01-27T10:48:09.484Z,46.40
2019-01-27T10:51:05.405Z,56.50
2019-01-27T10:53:58.988Z,47.00
2019-01-27T10:56:34.540Z,46.30
2019-01-27T10:59:13.477Z,47.30
2019-01-27T11:01:52.771Z,45.60
2019-01-27T11:04:37.556Z,46.67
2019-01-27T11:07:22.363Z,46.33
2019-01-27T11:10:12.707Z,45.87
2019-01-27T11:12:58.434Z,48.23
2019-01-27T11:15:42.562Z,47.70
2019-01-27T11:18:33.050Z,46.77
2019-01-27T11:21:26.018Z,44.10
2019-01-27T11:24:01.020Z,44.57
2019-01-27T11:26:54.244Z,43.47
2019-01-27T11:29:35.765Z,42.00
2019-01-27T11:32:23.366Z,39.50
2019-01-27T11:35:10.848Z,42.50
2019-01-27T11:37:57.018Z,39.90
2019-01-27T11:40:34.230Z,40.80
2019-01-27T11:43:25.020Z,39.43
2019-01-27T11:46:10.951Z,39.73
2019-01-27T11:48:46.341Z,38.57
2019-01-27T11:51:37.974Z,38.40
2019-01-27T11:54:05.890Z,39.97
2019-01-27T11:56:33.926Z,37.70
2019-01-27T11:59:02.183Z,40.47
2019-01-27T12:01:30.570Z,40.30
2019-01-27T12:03:58.591Z,39.13
2019-01-27T12:06:26.398Z,38.70
2019-01-27T12:08:54.514Z,37.17
2019-01-27T12:11:22.610Z,39.23
2019-01-27T12:13:53.720Z,39.10
2019-01-27T12:16:21.591Z,37.10
2019-01-27T12:18:49.881Z,40.43
2019-01-27T12:21:17.595Z,39.07
2019-01-27T12:23:45.496Z,35.80
2019-01-27T12:26:13.250Z,34.90
2019-01-27T12:28:41.555Z,36.23
2019-01-27T12:31:09.403Z,35.23
2019-01-27T12:33:37.512Z,38.03
2019-01-27T12:36:05.836Z,38.90
2019-01-27T12:38:33.857Z,34.77
2019-01-27T12:41:01.697Z,36.53
2019-01-27T12:43:29.457Z,36.90
2019-01-27T12:45:57.349Z,33.57
2019-01-27T12:48:25.703Z,32.37
2019-01-27T12:50:53.710Z,33.57
2019-01-27T12:53:21.754Z,32.63
2019-01-27T12:55:49.831Z,32.60
2019-01-27T12:58:18.869Z,34.80
2019-01-27T13:00:50.462Z,34.00
2019-01-27T13:03:18.520Z,34.13
2019-01-27T13:05:47.793Z,33.03
2019-01-27T13:08:15.522Z,33.07
2019-01-27T13:10:43.328Z,38.30
2019-01-27T13:13:12.160Z,34.37
2019-01-27T13:15:40.099Z,33.53
2019-01-27T13:18:08.201Z,29.17
2019-01-27T13:20:36.115Z,28.47
2019-01-27T13:23:04.414Z,30.13
2019-01-27T13:25:32.276Z,29.63
2019-01-27T13:28:00.216Z,29.00
2019-01-27T13:30:28.122Z,31.20
2019-01-27T13:32:55.952Z,30.77
2019-01-27T13:35:23.847Z,30.83
2019-01-27T13:37:52.813Z,31.63
2019-01-27T13:40:21.361Z,30.67
2019-01-27T13:42:49.399Z,31.27
2019-01-27T13:45:20.044Z,29.57
2019-01-27T13:47:48.196Z,31.00
2019-01-27T13:50:16.279Z,30.27
2019-01-27T13:52:44.565Z,30.97
2019-01-27T13:55:18.472Z,29.07
2019-01-27T13:57:46.597Z,29.93
2019-01-27T14:00:19.244Z,29.60
2019-01-27T14:02:47.480Z,29.40
2019-01-27T14:05:15.591Z,29.63
2019-01-27T14:07:44.546Z,26.50
2019-01-27T14:10:15.293Z,27.73
2019-01-27T14:12:43.299Z,28.37
2019-01-27T14:15:14.546Z,27.20
2019-01-27T14:17:42.538Z,25.33
2019-01-27T14:20:12.305Z,26.13
2019-01-27T14:22:40.329Z,26.20
2019-01-27T14:25:09.461Z,26.03
2019-01-27T14:27:37.605Z,26.00
2019-01-27T14:30:07.887Z,27.07
2019-01-27T14:32:36.092Z,24.53
2019-01-27T14:35:05.133Z,27.27
2019-01-27T14:37:33.357Z,25.63
2019-01-27T14:40:01.387Z,25.60
2019-01-27T14:42:29.449Z,27.33
2019-01-27T14:44:57.474Z,26.10
2019-01-27T14:47:25.658Z,29.43
2019-01-27T14:49:53.862Z,27.93
2019-01-27T14:52:21.831Z,27.23
2019-01-27T14:54:49.929Z,28.80
2019-01-27T14:57:17.892Z,28.10
2019-01-27T14:59:45.817Z,27.70
2019-01-27T15:02:13.682Z,29.23
2019-01-27T15:04:41.944Z,30.13
2019-01-27T15:07:09.658Z,29.50
2019-01-27T15:09:37.376Z,29.93
2019-01-27T15:12:05.232Z,29.10
2019-01-27T15:14:33.024Z,28.97
2019-01-27T15:17:00.985Z,30.80
2019-01-27T15:19:28.645Z,29.67
2019-01-27T15:21:56.295Z,33.20
2019-01-27T15:24:23.923Z,29.80
2019-01-27T15:26:51.713Z,30.63
2019-01-27T15:29:19.359Z,30.43
2019-01-27T15:31:47.073Z,27.70
2019-01-27T15:34:14.900Z,29.30
2019-01-27T15:36:45.643Z,28.93
2019-01-27T15:39:13.231Z,29.03
2019-01-27T15:41:40.964Z,30.03
2019-01-27T15:44:08.611Z,31.43
2019-01-27T15:46:36.412Z,31.50
2019-01-27T15:49:04.322Z,32.20
2019-01-27T15:51:32.508Z,32.77
2019-01-27T15:54:00.326Z,34.40
2019-01-27T15:56:28.047Z,33.17
2019-01-27T15:58:56.982Z,32.30
2019-01-27T16:01:24.841Z,31.13
2019-01-27T16:03:52.615Z,33.80
2019-01-27T16:06:20.284Z,33.33
2019-01-27T16:08:48.062Z,34.43
2019-01-27T16:11:15.817Z,33.77
2019-01-27T16:13:45.992Z,32.97
2019-01-27T16:16:13.740Z,33.57
2019-01-27T16:18:41.631Z,36.77
2019-01-27T16:21:09.400Z,35.00
2019-01-27T16:23:44.568Z,35.97
2019-01-27T16:26:14.160Z,34.00
2019-01-27T16:28:41.955Z,34.93
2019-01-27T16:31:34.427Z,35.10
2019-01-27T16:34:10.315Z,36.40
2019-01-27T16:36:38.218Z,33.97
2019-01-27T16:39:09.862Z,34.37
2019-01-27T16:41:37.557Z,39.00
2019-01-27T16:44:05.426Z,35.23
2019-01-27T16:46:33.285Z,35.70
2019-01-27T16:49:00.998Z,37.37
2019-01-27T16:51:28.734Z,36.80
2019-01-27T16:53:56.470Z,33.77
2019-01-27T16:56:24.251Z,36.07
2019-01-27T16:58:51.952Z,36.33
2019-01-27T17:01:19.705Z,34.53
2019-01-27T17:03:47.514Z,37.63
2019-01-27T17:06:15.397Z,36.13
2019-01-27T17:08:43.204Z,34.03
2019-01-27T17:11:10.964Z,34.67
2019-01-27T17:13:39.611Z,35.87
2019-01-27T17:16:07.602Z,36.67
2019-01-27T17:18:36.739Z,35.73
2019-01-27T17:21:04.797Z,34.10
2019-01-27T17:23:32.491Z,33.90
2019-01-27T17:26:00.122Z,33.07
2019-01-27T17:28:27.928Z,33.00
2019-01-27T17:30:56.535Z,32.97
2019-01-27T17:33:24.605Z,37.70
2019-01-27T17:35:52.205Z,42.03
2019-01-27T17:38:19.899Z,39.03
2019-01-27T17:40:47.525Z,37.87
2019-01-27T17:43:15.200Z,42.40
2019-01-27T17:45:42.845Z,43.13
2019-01-27T17:48:10.712Z,43.47
2019-01-27T17:50:38.388Z,40.50
2019-01-27T17:53:11.451Z,41.00
2019-01-27T17:55:40.358Z,40.43
2019-01-27T17:58:27.422Z,37.93
2019-01-27T18:01:29.797Z,34.47
2019-01-27T18:04:06.693Z,36.50
2019-01-27T18:06:44.943Z,32.83
2019-01-27T18:09:19.781Z,36.33
2019-01-27T18:11:51.610Z,35.37
2019-01-27T18:14:47.086Z,35.93
2019-01-27T18:17:16.644Z,34.27
2019-01-27T18:19:53.232Z,34.83
2019-01-27T18:22:25.477Z,34.80
2019-01-27T18:24:59.793Z,33.53
2019-01-27T18:27:28.288Z,31.43
2019-01-27T18:29:55.890Z,32.23
2019-01-27T18:32:31.603Z,32.43
2019-01-27T18:34:59.189Z,35.77
2019-01-27T18:37:26.885Z,34.13
2019-01-27T18:39:54.801Z,32.80
2019-01-27T18:42:22.486Z,31.53
2019-01-27T18:44:50.199Z,31.83
2019-01-27T18:47:17.942Z,33.70
2019-01-27T18:49:45.645Z,34.60
2019-01-27T18:52:13.481Z,33.27
2019-01-27T18:54:49.554Z,36.33
2019-01-27T18:57:39.585Z,38.00
2019-01-27T19:00:17.351Z,36.90
2019-01-27T19:03:16.484Z,36.20
2019-01-27T19:05:56.235Z,36.87
2019-01-27T19:08:44.100Z,36.43
2019-01-27T19:11:31.416Z,34.43
2019-01-27T19:14:36.622Z,35.30
2019-01-27T19:17:21.283Z,33.13
2019-01-27T19:19:58.603Z,35.63
2019-01-27T19:22:45.838Z,34.27
2019-01-27T19:25:36.167Z,34.13
2019-01-27T19:28:26.270Z,32.27
2019-01-27T19:31:03.081Z,32.23
2019-01-27T19:33:39.496Z,33.07
2019-01-27T19:36:44.777Z,34.70
2019-01-27T19:39:26.334Z,36.97
2019-01-27T19:42:04.948Z,32.87
2019-01-27T19:44:44.750Z,31.33
2019-01-27T19:47:30.913Z,34.47
2019-01-27T19:50:19.956Z,33.50
2019-01-27T19:53:03.575Z,31.23
2019-01-27T19:55:42.619Z,37.20
2019-01-27T19:58:18.048Z,35.40
2019-01-27T20:01:23.335Z,37.87
2019-01-27T20:04:14.840Z,65.40
2019-01-27T20:07:00.670Z,40.10
2019-01-27T20:09:44.660Z,41.90
2019-01-27T20:12:30.866Z,39.50
2019-01-27T20:15:14.626Z,43.80
2019-01-27T20:18:06.352Z,45.80
2019-01-27T20:20:56.546Z,44.40
2019-01-27T20:23:43.700Z,46.87
2019-01-27T20:26:51.609Z,46.63
2019-01-27T20:29:35.755Z,51.17
2019-01-27T20:32:28.869Z,47.67
2019-01-27T20:35:36.209Z,51.93
2019-01-27T20:38:35.589Z,49.67
2019-01-27T20:41:41.158Z,49.83
2019-01-27T20:44:16.501Z,49.63
2019-01-27T20:46:52.010Z,51.03
2019-01-27T20:49:37.836Z,50.77
2019-01-27T20:52:23.940Z,50.67
2019-01-27T20:55:26.517Z,51.37
2019-01-27T20:58:23.378Z,49.97
2019-01-27T21:01:13.696Z,50.63
2019-01-27T21:04:32.289Z,51.57
2019-01-27T21:07:50.492Z,50.87
2019-01-27T21:10:37.991Z,45.90
2019-01-27T21:13:23.451Z,44.30
2019-01-27T21:16:06.621Z,42.10
2019-01-27T21:18:39.192Z,43.87
2019-01-27T21:21:06.815Z,43.83
2019-01-27T21:23:34.505Z,42.27
2019-01-27T21:26:05.014Z,44.13
2019-01-27T21:28:32.661Z,43.37
2019-01-27T21:31:00.381Z,43.70
2019-01-27T21:33:28.402Z,42.70
2019-01-27T21:35:56.165Z,41.97
2019-01-27T21:38:23.956Z,40.77
2019-01-27T21:40:51.633Z,43.23
2019-01-27T21:43:20.157Z,41.73
2019-01-27T21:45:47.843Z,43.17
2019-01-27T21:48:15.417Z,39.80
2019-01-27T21:50:43.082Z,38.57
2019-01-27T21:53:10.791Z,40.00
2019-01-27T21:55:38.522Z,40.27
2019-01-27T21:58:06.327Z,41.60
2019-01-27T22:00:34.025Z,43.57
2019-01-27T22:03:01.783Z,41.07
2019-01-27T22:05:29.571Z,42.43
2019-01-27T22:07:57.339Z,41.93
2019-01-27T22:10:25.094Z,42.90
2019-01-27T22:12:52.875Z,38.93
2019-01-27T22:15:20.691Z,38.97
2019-01-27T22:17:48.411Z,37.03
2019-01-27T22:20:16.127Z,39.37
2019-01-27T22:22:43.907Z,38.23
2019-01-27T22:25:12.888Z,37.67
2019-01-27T22:27:41.802Z,38.43
2019-01-27T22:30:15.724Z,37.60
2019-01-27T22:32:43.514Z,38.03
2019-01-27T22:35:11.519Z,35.60
2019-01-27T22:37:39.334Z,35.77
2019-01-27T22:40:08.388Z,36.13
2019-01-27T22:42:37.077Z,36.13
2019-01-27T22:45:08.564Z,35.83
2019-01-27T22:47:36.158Z,35.50
2019-01-27T22:50:05.700Z,34.50
2019-01-27T22:52:33.297Z,33.63
2019-01-27T22:55:00.905Z,33.93
2019-01-27T22:57:28.585Z,34.10
2019-01-27T22:59:56.316Z,35.83
2019-01-27T23:02:26.702Z,36.90
2019-01-27T23:04:54.673Z,36.00
2019-01-27T23:07:22.258Z,36.33
2019-01-27T23:09:51.815Z,34.20
2019-01-27T23:12:19.518Z,33.87
2019-01-27T23:14:50.026Z,35.87
2019-01-27T23:17:17.681Z,34.77
2019-01-27T23:19:45.410Z,35.07
2019-01-27T23:22:13.034Z,35.60
2019-01-27T23:24:40.752Z,35.03
2019-01-27T23:27:08.498Z,39.17
2019-01-27T23:29:36.167Z,38.17
2019-01-27T23:32:03.954Z,38.20
2019-01-27T23:34:31.702Z,37.73
2019-01-27T23:36:59.557Z,35.77
2019-01-27T23:39:27.346Z,36.53
2019-01-27T23:41:55.018Z,34.30
2019-01-27T23:44:22.740Z,36.00
2019-01-27T23:46:50.501Z,33.60
2019-01-27T23:49:18.216Z,34.57
2019-01-27T23:51:45.960Z,35.77
2019-01-27T23:54:13.695Z,35.83
2019-01-27T23:56:41.390Z,37.07
2019-01-27T23:59:09.060Z,36.50
